Kite, Kentucky
Current Conditions -  °F | °C
As of 2:55 PM on Wednesday 28 Jan 2015 (Local Time) from KPBX Reporting Station
Clear Clear  
Wind Chill: 32°   Ceiling: Unl
Heat Index: 32°   Visibility: 10mi
Dew Point: 20°   Wind: 0mph
Humidity: 63%   Direction: NA
Pressure: 30.28"   Gusts: NA
Location:  37.32°N, 82.8°W
Report Text: KPBX 281955Z AUTO 00000KT 10SM CLR 00/M06 A3028 RMK AO2 T10021065
Loading
Personal Weather Stations






























Interactive Weather Map New forecast layout! Learn more

10-Day Weather Forecast

Advertisements
Track Severe Weather on mobile